Monday, September 22, 2014
02:18 UTC
  |  Log In   |  Register Free
Airport Search:

Seattle-Tacoma International Airport
(KSEA)

FAA data valid effective September 18, 2014 - November 13, 2014 (unless otherwise noted).

 
 
 
 
 
 
 
 
 
 
 
 
 
 

Current Aviation Weather for Seattle-Tacoma International Airport (KSEA)

The most recent METAR observation for KSEA was updated at: 0217
METAR Summary (Translated METAR)
KSEA
220153Z 21010KT 10SM SCT160 21/13 A2988 RMK AO2 SLP125 T02060133
KRNT
220153Z VRB04KT 10SM CLR 23/15 A2986 RMK AO2 SLP115 T02330150
(4.6 nm NE from KSEA)
KBFI
220153Z 16005KT 10SM CLR 24/13 A2986 RMK AO2 SLP109 T02390133
(4.9 nm NE from KSEA)
TAF Summary (Translated TAF)
KSEA
212100Z 2121/2224 20010KT P6SM SKC FM220800 20005KT 6SM BR OVC009 FM221900 24006KT P6SM SCT020 BKN035
KBFI
(4.9 nm NE from KSEA)
211730Z 2118/2218 12004KT P6SM FEW090 FM212000 20005KT P6SM SCT150 FM220800 19003KT P6SM OVC013
  Airport Weather Conditions for KSEA

 Current Weather at SEA
69° F
Partly Cloudy
Southwest winds at 11.5 mph
SEA NOAA Radar

Pressure: 29.88 in
Humidity: 63%
Wind: Southwest at 11.5 MPH (10 KT)
Dew Point: 55.9°F
Visibility: 10.00 mi


Airport Weather Forecast for KSEA

Translated METAR and TAF for KSEA
Translated METAR for KSEA (0212 UTC 22 September 2014)
found at http://aviationweather.gov/adds/metars/
 
METAR text: KSEA 220153Z 21010KT 10SM SCT160 21/13 A2988 RMK AO2 SLP125 T02060133
Conditions at: KSEA (SEATTLE/METRO , WA, US) observed 0153 UTC 22 September 2014
Temperature: 20.6°C (69°F)
Dewpoint: 13.3°C (56°F) [RH = 63%]
Pressure (altimeter): 29.88 inches Hg (1011.9 mb)
[Sea-level pressure: 1012.5 mb]
Winds: from the SSW (210 degrees) at 12 MPH (10 knots; 5.2 m/s)
Visibility: 10 or more miles (16+ km)
Ceiling: at least 12,000 feet AGL
Clouds: scattered clouds at 16000 feet AGL
Weather: no significant weather observed at this time
Translated TAF for KSEA
Forecast for: KSEA (SEATTLE/METRO , WA, US)
TAF Text: KSEA 212320Z 2200/2306 20010KT P6SM FEW200
Forecast period: 0000 to 0800 UTC 22 September 2014
Forecast type: FROM: standard forecast or significant change
Winds: from the SSW (200 degrees) at 12 MPH (10 knots; 5.2 m/s)
Visibility: 6 or more miles (10+ km)
Clouds: few clouds at 20000 feet AGL
Weather: no significant weather forecast for this period
TAF Text: FM220800 20005KT 6SM BR OVC009
Forecast period: 0800 to 1900 UTC 22 September 2014
Forecast type: FROM: standard forecast or significant change
Winds: from the SSW (200 degrees) at 6 MPH (5 knots; 2.6 m/s)
Visibility: 6 miles (10 km)
Ceiling: 900 feet AGL
Clouds: overcast cloud deck at 900 feet AGL
Weather: BR  (mist)
TAF Text: FM221900 24006KT P6SM SCT020 OVC035
Forecast period: 1900 to 2100 UTC 22 September 2014
Forecast type: FROM: standard forecast or significant change
Winds: from the WSW (240 degrees) at 7 MPH (6 knots; 3.1 m/s)
Visibility: 6 or more miles (10+ km)
Ceiling: 3500 feet AGL
Clouds: scattered clouds at 2000 feet AGL
overcast cloud deck at 3500 feet AGL
Weather: no significant weather forecast for this period
TAF Text: FM222100 23007KT P6SM SCT035 BKN100
Forecast period: 2100 UTC 22 September 2014 to 0600 UTC 23 September 2014
Forecast type: FROM: standard forecast or significant change
Winds: from the SW (230 degrees) at 8 MPH (7 knots; 3.6 m/s)
Visibility: 6 or more miles (10+ km)
Ceiling: 10000 feet AGL
Clouds: scattered clouds at 3500 feet AGL
broken clouds at 10000 feet AGL
Weather: no significant weather forecast for this period

Find All Airport Services Find A Hotel Find A Rental Car Find A Golf Course Find A Restaurant $100 Hamburger



FBO's on the Field
FBO Company Facility Photos Services Transportation Aviation Fuel Prices: Prices include tax
Catering Weather Repair Courtesy Rental Type 100LL JetA JetA+ MOGAS 8087
 
Aircraft Service Intl.

This FBO has not yet been rated
FS:Avfuel
Last Updated: Aug-28
Login to update fuel prices
SS:
Contact Aircraft Service Intl.More FBO Information
 
Add another FBO Facility Photos Catering Weather Repair Courtesy Rental Type 100LL JetA JetA+ MOGAS 8087
Services Transportation Aviation Fuel Prices: Prices include tax


model-print
model-print
model-print
model-print